createdAt,value
2019-04-26T00:00:52.141Z,100896.62
2019-04-26T00:03:26.444Z,100901.00
2019-04-26T00:05:56.103Z,100897.44
2019-04-26T00:08:24.993Z,100899.62
2019-04-26T00:11:18.466Z,100897.01
2019-04-26T00:14:05.168Z,100896.99
2019-04-26T00:16:40.200Z,100898.31
2019-04-26T00:19:09.421Z,100894.01
2019-04-26T00:21:38.395Z,100889.23
2019-04-26T00:24:07.532Z,100891.00
2019-04-26T00:26:36.689Z,100888.80
2019-04-26T00:29:05.387Z,100888.80
2019-04-26T00:31:34.113Z,100882.28
2019-04-26T00:34:02.738Z,100878.78
2019-04-26T00:36:31.829Z,100875.73
2019-04-26T00:39:00.734Z,100869.61
2019-04-26T00:41:30.144Z,100869.16
2019-04-26T00:43:59.543Z,100871.39
2019-04-26T00:46:29.754Z,100866.11
2019-04-26T00:48:59.941Z,100871.80
2019-04-26T00:51:28.983Z,100863.97
2019-04-26T00:53:58.511Z,100867.91
2019-04-26T00:56:27.474Z,100868.74
2019-04-26T00:58:56.154Z,100860.05
2019-04-26T01:01:26.735Z,100864.85
2019-04-26T01:03:55.724Z,100848.31
2019-04-26T01:06:27.552Z,100841.33
2019-04-26T01:08:56.442Z,100848.30
2019-04-26T01:11:26.062Z,100845.67
2019-04-26T01:13:55.404Z,100836.11
2019-04-26T01:16:24.449Z,100842.64
2019-04-26T01:18:53.441Z,100832.61
2019-04-26T01:21:22.948Z,100832.98
2019-04-26T01:23:52.764Z,100825.22
2019-04-26T01:26:27.407Z,100832.63
2019-04-26T01:29:03.459Z,100836.59
2019-04-26T01:31:35.770Z,100832.64
2019-04-26T01:34:05.164Z,100830.48
2019-04-26T01:36:35.031Z,100821.84
2019-04-26T01:39:16.827Z,100827.91
2019-04-26T01:41:51.004Z,100820.11
2019-04-26T01:44:29.251Z,100825.62
2019-04-26T01:46:57.967Z,100818.28
2019-04-26T01:49:26.850Z,100819.65
2019-04-26T01:52:04.592Z,100814.39
2019-04-26T01:54:38.570Z,100804.44
2019-04-26T01:57:07.534Z,100800.94
2019-04-26T01:59:38.028Z,100800.09
2019-04-26T02:02:25.604Z,100793.11
2019-04-26T02:04:56.660Z,100785.73
2019-04-26T02:07:41.416Z,100792.62
2019-04-26T02:10:20.634Z,100793.01
2019-04-26T02:12:50.099Z,100801.38
2019-04-26T02:15:23.019Z,100797.48
2019-04-26T02:17:53.963Z,100799.57
2019-04-26T02:20:57.566Z,100789.09
2019-04-26T02:23:32.910Z,100787.85
2019-04-26T02:26:21.050Z,100793.88
2019-04-26T02:28:50.101Z,100794.84
2019-04-26T02:31:19.621Z,100794.33
2019-04-26T02:33:48.432Z,100787.36
2019-04-26T02:36:17.419Z,100784.75
2019-04-26T02:38:47.322Z,100783.44
2019-04-26T02:41:16.045Z,100776.88
2019-04-26T02:43:46.190Z,100774.66
2019-04-26T02:46:22.812Z,100777.27
2019-04-26T02:49:16.505Z,100776.84
2019-04-26T02:51:52.024Z,100780.83
2019-04-26T02:54:47.341Z,100776.48
2019-04-26T02:57:47.237Z,100770.77
2019-04-26T03:00:19.036Z,100773.02
2019-04-26T03:02:53.989Z,100767.75
2019-04-26T03:05:22.964Z,100764.20
2019-04-26T03:08:16.233Z,100762.94
2019-04-26T03:10:50.398Z,100754.27
2019-04-26T03:13:32.758Z,100750.30
2019-04-26T03:16:15.427Z,100747.68
2019-04-26T03:19:13.977Z,100749.05
2019-04-26T03:21:55.155Z,100741.19
2019-04-26T03:24:28.812Z,100737.63
2019-04-26T03:27:24.658Z,100738.95
2019-04-26T03:30:18.961Z,100728.09
2019-04-26T03:33:02.723Z,100723.77
2019-04-26T03:35:56.625Z,100714.13
2019-04-26T03:38:45.636Z,100714.57
2019-04-26T03:41:26.396Z,100711.02
2019-04-26T03:44:23.966Z,100710.64
2019-04-26T03:46:57.221Z,100704.55
2019-04-26T03:49:54.392Z,100708.39
2019-04-26T03:52:48.081Z,100706.22
2019-04-26T03:56:13.009Z,100707.50
2019-04-26T03:59:01.416Z,100701.30
2019-04-26T04:01:36.655Z,100705.20
2019-04-26T04:04:23.696Z,100701.66
2019-04-26T04:07:03.731Z,100699.39
2019-04-26T04:09:24.855Z,100705.86
2019-04-26T04:12:11.903Z,100705.33
2019-04-26T04:14:46.771Z,100707.89
2019-04-26T04:17:28.821Z,100706.02
2019-04-26T04:20:54.014Z,100705.86
2019-04-26T04:23:45.432Z,100704.11
2019-04-26T04:26:17.399Z,100707.91
2019-04-26T04:29:18.772Z,100705.67
2019-04-26T04:31:51.467Z,100702.06
2019-04-26T04:34:31.317Z,100704.87
2019-04-26T04:37:02.735Z,100698.33
2019-04-26T04:40:03.131Z,100695.58
2019-04-26T04:43:13.366Z,100699.48
2019-04-26T04:46:12.060Z,100693.33
2019-04-26T04:49:13.113Z,100695.36
2019-04-26T04:52:01.546Z,100687.92
2019-04-26T04:54:39.289Z,100690.78
2019-04-26T04:57:41.992Z,100682.01
2019-04-26T05:00:28.909Z,100685.70
2019-04-26T05:03:44.069Z,100686.41
2019-04-26T05:06:40.926Z,100682.41
2019-04-26T05:09:11.300Z,100680.11
2019-04-26T05:12:02.901Z,100682.67
2019-04-26T05:15:11.511Z,100679.44
2019-04-26T05:18:05.475Z,100681.09
2019-04-26T05:20:42.350Z,100681.41
2019-04-26T05:23:49.004Z,100673.03
2019-04-26T05:27:22.743Z,100675.09
2019-04-26T05:30:36.079Z,100671.55
2019-04-26T05:33:23.672Z,100669.20
2019-04-26T05:36:03.358Z,100667.06
2019-04-26T05:39:14.848Z,100669.72
2019-04-26T05:42:41.307Z,100674.89
2019-04-26T05:46:14.209Z,100672.34
2019-04-26T05:49:44.518Z,100675.34
2019-04-26T05:52:51.574Z,100671.37
2019-04-26T05:56:05.696Z,100673.02
2019-04-26T05:59:07.168Z,100668.60
2019-04-26T06:01:53.363Z,100665.56
2019-04-26T06:04:46.268Z,100658.03
2019-04-26T06:08:03.045Z,100659.84
2019-04-26T06:10:48.132Z,100661.41
2019-04-26T06:13:54.379Z,100658.41
2019-04-26T06:16:53.162Z,100654.78
2019-04-26T06:19:48.000Z,100655.48
2019-04-26T06:22:25.646Z,100656.04
2019-04-26T06:25:18.901Z,100655.35
2019-04-26T06:28:25.125Z,100654.30
2019-04-26T06:31:11.484Z,100652.11
2019-04-26T06:34:05.250Z,100653.99
2019-04-26T06:36:45.058Z,100645.84
2019-04-26T06:39:30.626Z,100643.91
2019-04-26T06:42:36.464Z,100631.36
2019-04-26T06:45:38.794Z,100631.34
2019-04-26T06:48:19.287Z,100623.63
2019-04-26T06:50:55.937Z,100622.45
2019-04-26T06:53:50.306Z,100615.39
2019-04-26T06:57:13.422Z,100614.64
2019-04-26T06:59:53.623Z,100609.64
2019-04-26T07:02:57.434Z,100606.95
2019-04-26T07:05:28.297Z,100602.36
2019-04-26T07:08:29.025Z,100597.20
2019-04-26T07:12:03.052Z,100592.14
2019-04-26T07:15:07.949Z,100586.82
2019-04-26T07:18:04.418Z,100588.73
2019-04-26T07:20:40.198Z,100584.95
2019-04-26T07:23:38.837Z,100586.88
2019-04-26T07:26:47.548Z,100589.37
2019-04-26T07:29:35.178Z,100586.61
2019-04-26T07:32:36.580Z,100584.79
2019-04-26T07:35:22.329Z,100587.23
2019-04-26T07:38:17.738Z,100582.84
2019-04-26T07:41:24.310Z,100588.48
2019-04-26T07:44:36.533Z,100584.02
2019-04-26T07:47:45.345Z,100585.61
2019-04-26T07:50:45.632Z,100584.55
2019-04-26T07:53:50.614Z,100582.64
2019-04-26T07:56:48.486Z,100581.52
2019-04-26T07:59:53.737Z,100579.81
2019-04-26T08:02:46.677Z,100576.05
2019-04-26T08:05:18.948Z,100575.33
2019-04-26T08:07:53.471Z,100577.11
2019-04-26T08:10:23.488Z,100572.06
2019-04-26T08:13:02.168Z,100570.34
2019-04-26T08:15:41.958Z,100573.84
2019-04-26T08:18:16.513Z,100564.34
2019-04-26T08:20:50.243Z,100566.20
2019-04-26T08:23:38.456Z,100557.08
2019-04-26T08:26:01.071Z,100551.05
2019-04-26T08:28:32.586Z,100549.90
2019-04-26T08:31:04.659Z,100541.23
2019-04-26T08:33:40.467Z,100552.75
2019-04-26T08:36:10.619Z,100544.50
2019-04-26T08:38:39.764Z,100545.61
2019-04-26T08:41:09.864Z,100542.23
2019-04-26T08:44:09.675Z,100542.73
2019-04-26T08:46:48.243Z,100538.66
2019-04-26T08:49:47.860Z,100539.90
2019-04-26T08:52:18.899Z,100535.11
2019-04-26T08:54:54.002Z,100543.95
2019-04-26T08:57:24.558Z,100543.17
2019-04-26T08:59:56.093Z,100543.98
2019-04-26T09:02:46.693Z,100544.94
2019-04-26T09:05:33.512Z,100548.68
2019-04-26T09:08:04.012Z,100544.01
2019-04-26T09:10:34.358Z,100547.05
2019-04-26T09:13:05.308Z,100551.25
2019-04-26T09:15:59.750Z,100541.33
2019-04-26T09:18:28.439Z,100536.27
2019-04-26T09:20:57.050Z,100548.72
2019-04-26T09:23:40.196Z,100536.28
2019-04-26T09:26:12.551Z,100537.92
2019-04-26T09:28:58.150Z,100543.92
2019-04-26T09:31:50.505Z,100538.91
2019-04-26T09:34:18.760Z,100535.37
2019-04-26T09:36:47.651Z,100527.44
2019-04-26T09:39:17.545Z,100535.41
2019-04-26T09:41:46.168Z,100533.86
2019-04-26T09:44:33.834Z,100518.91
2019-04-26T09:47:20.147Z,100521.83
2019-04-26T09:49:58.440Z,100525.44
2019-04-26T09:52:30.681Z,100523.23
2019-04-26T09:54:59.300Z,100530.69
2019-04-26T09:57:28.301Z,100529.48
2019-04-26T09:59:56.933Z,100527.00
2019-04-26T10:02:29.524Z,100516.69
2019-04-26T10:04:56.453Z,100516.14
2019-04-26T10:07:25.449Z,100521.43
2019-04-26T10:09:56.457Z,100522.42
2019-04-26T10:12:34.388Z,100519.59
2019-04-26T10:15:26.426Z,100521.20
2019-04-26T10:17:53.164Z,100515.02
2019-04-26T10:20:22.059Z,100508.32
2019-04-26T10:22:51.360Z,100508.14
2019-04-26T10:25:21.174Z,100506.23
2019-04-26T10:27:50.172Z,100506.66
2019-04-26T10:30:19.158Z,100501.63
2019-04-26T10:32:48.094Z,100507.52
2019-04-26T10:35:21.176Z,100513.69
2019-04-26T10:37:49.259Z,100504.28
2019-04-26T10:40:18.186Z,100500.03
2019-04-26T10:42:47.100Z,100509.84
2019-04-26T10:45:16.337Z,100496.28
2019-04-26T10:47:45.377Z,100494.13
2019-04-26T10:50:14.952Z,100498.94
2019-04-26T10:52:55.737Z,100496.89
2019-04-26T10:55:52.518Z,100495.47
2019-04-26T10:58:26.852Z,100496.99
2019-04-26T11:00:57.268Z,100498.03
2019-04-26T11:03:25.845Z,100487.10
2019-04-26T11:05:55.372Z,100490.52
2019-04-26T11:08:24.549Z,100484.67
2019-04-26T11:10:53.541Z,100485.81
2019-04-26T11:13:22.543Z,100481.17
2019-04-26T11:15:51.203Z,100476.96
2019-04-26T11:18:27.082Z,100472.59
2019-04-26T11:20:50.268Z,100479.88
2019-04-26T11:23:18.902Z,100470.79
2019-04-26T11:25:47.547Z,100471.28
2019-04-26T11:28:17.317Z,100464.10
2019-04-26T11:30:48.044Z,100469.97
2019-04-26T11:33:17.514Z,100469.45
2019-04-26T11:35:46.124Z,100476.22
2019-04-26T11:38:14.752Z,100475.27
2019-04-26T11:40:44.337Z,100476.99
2019-04-26T11:43:15.823Z,100483.25
2019-04-26T11:45:45.329Z,100490.88
2019-04-26T11:48:15.238Z,100497.77
2019-04-26T11:50:44.097Z,100499.44
2019-04-26T11:53:12.713Z,100514.86
2019-04-26T11:55:41.338Z,100517.59
2019-04-26T11:58:09.954Z,100509.85
2019-04-26T12:00:46.383Z,100499.74
2019-04-26T12:03:15.053Z,100487.41
2019-04-26T12:05:48.849Z,100487.00
2019-04-26T12:08:22.879Z,100468.56
2019-04-26T12:10:51.824Z,100472.06
2019-04-26T12:13:21.278Z,100493.99
2019-04-26T12:15:51.342Z,100518.84
2019-04-26T12:18:20.048Z,100527.84
2019-04-26T12:20:49.019Z,100542.02
2019-04-26T12:23:20.540Z,100552.63
2019-04-26T12:25:48.650Z,100562.63
2019-04-26T12:28:18.252Z,100562.67
2019-04-26T12:30:46.932Z,100563.10
2019-04-26T12:33:15.568Z,100565.53
2019-04-26T12:35:44.626Z,100583.78
2019-04-26T12:38:13.247Z,100609.91
2019-04-26T12:40:42.232Z,100611.55
2019-04-26T12:43:12.219Z,100614.91
2019-04-26T12:45:51.388Z,100607.45
2019-04-26T12:48:22.181Z,100611.47
2019-04-26T12:50:50.791Z,100607.92
2019-04-26T12:53:20.070Z,100615.69
2019-04-26T12:55:52.711Z,100604.84
2019-04-26T12:58:19.391Z,100617.72
2019-04-26T13:00:54.173Z,100604.83
2019-04-26T13:03:20.473Z,100615.09
2019-04-26T13:05:57.405Z,100605.53
2019-04-26T13:08:19.990Z,100606.69
2019-04-26T13:11:07.439Z,100597.03
2019-04-26T13:13:41.718Z,100614.42
2019-04-26T13:16:14.413Z,100603.61
2019-04-26T13:18:45.218Z,100603.46
2019-04-26T13:21:14.078Z,100597.06
2019-04-26T13:23:43.017Z,100590.17
2019-04-26T13:26:12.323Z,100581.13
2019-04-26T13:28:40.959Z,100575.80
2019-04-26T13:31:09.597Z,100579.13
2019-04-26T13:33:38.886Z,100584.89
2019-04-26T13:36:07.814Z,100598.59
2019-04-26T13:38:39.419Z,100599.86
2019-04-26T13:41:07.645Z,100607.09
2019-04-26T13:43:36.500Z,100616.66
2019-04-26T13:46:23.239Z,100625.20
2019-04-26T13:49:07.575Z,100624.53
2019-04-26T13:51:36.243Z,100640.51
2019-04-26T13:54:05.257Z,100646.97
2019-04-26T13:56:35.967Z,100647.67
2019-04-26T13:59:04.548Z,100656.31
2019-04-26T14:01:34.007Z,100656.38
2019-04-26T14:04:07.022Z,100664.09
2019-04-26T14:06:35.026Z,100669.77
2019-04-26T14:09:04.690Z,100657.86
2019-04-26T14:11:33.628Z,100667.37
2019-04-26T14:14:02.257Z,100654.37
2019-04-26T14:16:31.169Z,100663.14
2019-04-26T14:19:00.351Z,100655.67
2019-04-26T14:21:32.995Z,100665.22
2019-04-26T14:24:23.836Z,100671.67
2019-04-26T14:26:57.204Z,100672.80
2019-04-26T14:29:28.414Z,100672.54
2019-04-26T14:31:57.542Z,100678.52
2019-04-26T14:34:26.263Z,100681.20
2019-04-26T14:37:05.825Z,100686.74
2019-04-26T14:39:35.260Z,100706.02
2019-04-26T14:41:57.280Z,100714.81
2019-04-26T14:44:30.924Z,100714.73
2019-04-26T14:46:58.065Z,100700.21
2019-04-26T14:49:38.517Z,100700.24
2019-04-26T14:51:57.227Z,100704.66
2019-04-26T14:54:26.158Z,100715.25
2019-04-26T14:56:55.052Z,100720.44
2019-04-26T14:59:44.225Z,100717.82
2019-04-26T15:02:33.992Z,100719.77
2019-04-26T15:05:24.806Z,100725.98
2019-04-26T15:07:53.812Z,100730.49
2019-04-26T15:10:24.248Z,100730.77
2019-04-26T15:13:01.460Z,100740.81
2019-04-26T15:15:27.077Z,100728.91
2019-04-26T15:17:59.433Z,100741.23
2019-04-26T15:20:25.016Z,100735.40
2019-04-26T15:22:53.619Z,100741.20
2019-04-26T15:25:22.831Z,100741.91
2019-04-26T15:27:52.528Z,100751.86
2019-04-26T15:30:22.075Z,100748.98
2019-04-26T15:32:52.873Z,100754.03
2019-04-26T15:35:23.208Z,100753.66
2019-04-26T15:37:53.421Z,100761.53
2019-04-26T15:40:40.331Z,100750.30
2019-04-26T15:43:28.452Z,100762.95
2019-04-26T15:46:33.441Z,100768.66
2019-04-26T15:49:12.518Z,100760.95
2019-04-26T15:51:42.763Z,100766.28
2019-04-26T15:54:11.729Z,100768.25
2019-04-26T15:56:40.723Z,100778.16
2019-04-26T15:59:09.347Z,100776.44
2019-04-26T16:01:41.883Z,100780.98
2019-04-26T16:04:08.535Z,100781.03
2019-04-26T16:06:41.124Z,100777.38
2019-04-26T16:09:08.717Z,100787.32
2019-04-26T16:11:37.428Z,100793.43
2019-04-26T16:14:06.438Z,100804.29
2019-04-26T16:16:35.310Z,100816.07
2019-04-26T16:19:04.108Z,100812.55
2019-04-26T16:21:32.963Z,100811.37
2019-04-26T16:24:02.768Z,100817.83
2019-04-26T16:26:32.931Z,100820.22
2019-04-26T16:29:24.178Z,100816.05
2019-04-26T16:32:10.328Z,100798.56
2019-04-26T16:34:41.774Z,100800.11
2019-04-26T16:37:15.047Z,100811.48
2019-04-26T16:39:46.075Z,100808.72
2019-04-26T16:42:14.000Z,100816.01
2019-04-26T16:44:45.031Z,100819.59
2019-04-26T16:47:13.744Z,100826.20
2019-04-26T16:49:46.217Z,100808.45
2019-04-26T16:52:13.997Z,100817.17
2019-04-26T16:54:43.181Z,100807.30
2019-04-26T16:57:12.466Z,100802.14
2019-04-26T16:59:47.661Z,100799.83
2019-04-26T17:02:15.619Z,100807.19
2019-04-26T17:04:43.538Z,100803.81
2019-04-26T17:07:13.883Z,100799.09
2019-04-26T17:09:59.822Z,100802.95
2019-04-26T17:12:14.960Z,100791.48
2019-04-26T17:14:47.517Z,100793.09
2019-04-26T17:17:15.266Z,100787.99
2019-04-26T17:19:45.010Z,100783.02
2019-04-26T17:22:44.709Z,100782.23
2019-04-26T17:25:29.067Z,100775.80
2019-04-26T17:27:57.716Z,100779.77
2019-04-26T17:30:26.754Z,100780.38
2019-04-26T17:32:55.649Z,100777.75
2019-04-26T17:35:25.414Z,100771.73
2019-04-26T17:37:57.473Z,100770.11
2019-04-26T17:40:25.459Z,100772.13
2019-04-26T17:42:55.330Z,100769.20
2019-04-26T17:45:23.968Z,100779.46
2019-04-26T17:47:53.073Z,100778.39
2019-04-26T17:50:21.763Z,100786.27
2019-04-26T17:52:51.561Z,100802.08
2019-04-26T17:55:20.300Z,100796.15
2019-04-26T17:57:50.696Z,100803.81
2019-04-26T18:00:27.160Z,100807.23
2019-04-26T18:02:53.648Z,100823.80
2019-04-26T18:05:24.389Z,100810.27
2019-04-26T18:07:58.367Z,100827.38
2019-04-26T18:10:23.653Z,100842.23
2019-04-26T18:12:52.662Z,100847.19
2019-04-26T18:15:21.738Z,100852.02
2019-04-26T18:18:09.668Z,100844.72
2019-04-26T18:20:56.910Z,100845.58
2019-04-26T18:23:26.100Z,100848.39
2019-04-26T18:25:55.073Z,100859.70
2019-04-26T18:28:23.798Z,100864.50
2019-04-26T18:30:53.115Z,100861.89
2019-04-26T18:33:26.078Z,100864.08
2019-04-26T18:35:57.458Z,100877.67
2019-04-26T18:38:26.403Z,100888.17
2019-04-26T18:41:00.507Z,100885.19
2019-04-26T18:43:25.390Z,100896.51
2019-04-26T18:45:58.578Z,100912.69
2019-04-26T18:48:26.200Z,100918.73
2019-04-26T18:50:55.414Z,100925.75
2019-04-26T18:53:43.807Z,100926.12
2019-04-26T18:56:12.849Z,100944.38
2019-04-26T18:58:41.705Z,100937.42
2019-04-26T19:01:13.593Z,100942.64
2019-04-26T19:03:43.694Z,100925.33
2019-04-26T19:06:27.144Z,100926.09
2019-04-26T19:08:47.827Z,100930.95
2019-04-26T19:11:14.160Z,100940.03
2019-04-26T19:14:15.308Z,100927.03
2019-04-26T19:17:02.953Z,100927.42
2019-04-26T19:19:41.983Z,100927.05
2019-04-26T19:22:15.911Z,100920.86
2019-04-26T19:24:42.327Z,100920.89
2019-04-26T19:27:12.470Z,100902.57
2019-04-26T19:29:43.261Z,100912.14
2019-04-26T19:32:11.951Z,100903.48
2019-04-26T19:34:42.123Z,100912.67
2019-04-26T19:37:11.062Z,100913.05
2019-04-26T19:39:40.054Z,100912.59
2019-04-26T19:42:09.253Z,100917.84
2019-04-26T19:44:38.555Z,100927.48
2019-04-26T19:47:17.427Z,100919.66
2019-04-26T19:49:54.734Z,100947.06
2019-04-26T19:53:01.801Z,100918.80
2019-04-26T19:55:55.708Z,100923.14
2019-04-26T19:58:26.911Z,100916.59
2019-04-26T20:00:56.255Z,100902.73
2019-04-26T20:03:25.272Z,100901.00
2019-04-26T20:05:53.899Z,100887.52
2019-04-26T20:08:23.537Z,100879.20
2019-04-26T20:10:52.773Z,100885.78
2019-04-26T20:13:22.143Z,100890.56
2019-04-26T20:15:53.306Z,100886.27
2019-04-26T20:18:21.781Z,100884.13
2019-04-26T20:20:52.136Z,100875.89
2019-04-26T20:23:22.864Z,100866.31
2019-04-26T20:25:53.063Z,100873.77
2019-04-26T20:28:22.796Z,100888.13
2019-04-26T20:31:09.452Z,100892.07
2019-04-26T20:33:38.539Z,100907.74
2019-04-26T20:36:07.791Z,100907.30
2019-04-26T20:38:45.486Z,100908.11
2019-04-26T20:41:07.551Z,100918.19
2019-04-26T20:43:42.158Z,100914.28
2019-04-26T20:46:14.588Z,100918.60
2019-04-26T20:48:37.646Z,100920.28
2019-04-26T20:51:10.789Z,100923.87
2019-04-26T20:53:41.270Z,100928.19
2019-04-26T20:56:09.888Z,100922.13
2019-04-26T20:58:43.316Z,100919.55
2019-04-26T21:01:12.990Z,100933.94
2019-04-26T21:03:42.801Z,100932.16
2019-04-26T21:06:11.589Z,100929.97
2019-04-26T21:08:42.329Z,100937.83
2019-04-26T21:11:13.736Z,100948.27
2019-04-26T21:13:42.358Z,100935.21
2019-04-26T21:16:15.196Z,100957.85
2019-04-26T21:18:44.062Z,100957.86
2019-04-26T21:21:12.291Z,100959.56
2019-04-26T21:23:43.945Z,100946.09
2019-04-26T21:26:34.525Z,100939.55
2019-04-26T21:29:20.384Z,100927.83
2019-04-26T21:32:20.458Z,100912.58
2019-04-26T21:34:50.700Z,100910.00
2019-04-26T21:37:25.642Z,100918.68
2019-04-26T21:40:03.802Z,100922.14
2019-04-26T21:42:33.366Z,100927.80
2019-04-26T21:45:03.561Z,100927.80
2019-04-26T21:47:35.162Z,100930.41
2019-04-26T21:50:04.220Z,100921.70
2019-04-26T21:52:34.282Z,100921.23
2019-04-26T21:55:04.861Z,100930.83
2019-04-26T21:57:35.003Z,100946.06
2019-04-26T22:00:06.886Z,100953.48
2019-04-26T22:02:37.487Z,100963.92
2019-04-26T22:05:07.987Z,100954.36
2019-04-26T22:07:39.414Z,100962.19
2019-04-26T22:10:14.260Z,100965.25
2019-04-26T22:12:44.961Z,100972.20
2019-04-26T22:15:25.231Z,100982.65
2019-04-26T22:17:56.879Z,100974.41
2019-04-26T22:20:33.714Z,100972.22
2019-04-26T22:23:21.458Z,100981.81
2019-04-26T22:25:51.778Z,100962.68
2019-04-26T22:28:20.771Z,100989.66
2019-04-26T22:30:49.751Z,100972.25
2019-04-26T22:33:18.763Z,100954.41
2019-04-26T22:35:50.509Z,100965.30
2019-04-26T22:38:23.702Z,100957.48
2019-04-26T22:40:53.283Z,100951.82
2019-04-26T22:43:36.223Z,100947.03
2019-04-26T22:46:14.164Z,100947.47
2019-04-26T22:48:44.204Z,100965.73
2019-04-26T22:51:14.022Z,100948.34
2019-04-26T22:53:43.392Z,100941.41
2019-04-26T22:56:13.394Z,100944.88
2019-04-26T22:58:44.110Z,100938.37
2019-04-26T23:01:13.163Z,100939.24
2019-04-26T23:03:46.357Z,100941.84
2019-04-26T23:06:13.600Z,100931.86
2019-04-26T23:08:43.886Z,100927.05
2019-04-26T23:11:13.485Z,100926.25
2019-04-26T23:13:59.745Z,100919.70
2019-04-26T23:16:40.498Z,100923.18
2019-04-26T23:19:30.725Z,100928.83
2019-04-26T23:21:59.376Z,100931.45
2019-04-26T23:24:28.240Z,100945.80
2019-04-26T23:26:57.639Z,100937.12
2019-04-26T23:29:26.574Z,100946.24
2019-04-26T23:31:55.655Z,100946.24
2019-04-26T23:34:25.249Z,100952.77
2019-04-26T23:36:54.159Z,100974.05
2019-04-26T23:39:24.477Z,100951.02
2019-04-26T23:41:53.997Z,100946.70
2019-04-26T23:44:23.256Z,100949.30
2019-04-26T23:46:54.956Z,100972.34
2019-04-26T23:49:25.022Z,100958.43
2019-04-26T23:51:53.445Z,100948.44
2019-04-26T23:54:23.890Z,100948.83
2019-04-26T23:56:57.375Z,100940.58
2019-04-26T23:59:24.803Z,100940.59
